Ardmore, Alabama
Current Conditions -  °F | °C
As of 6:15 AM on Sunday 23 Nov 2014 (Local Time) from KFYM Reporting Station
Overcast Overcast  
Wind Chill: 55°   Ceiling: 3000
Heat Index: 55°   Visibility: 10mi
Dew Point: 48°   Wind: 23mph
Humidity: 77%   Direction: 360°N
Pressure: 29.91"   Gusts: 40mph
Location:  34.99°N, 86.85°W
Report Text: KFYM 231215Z AUTO 36020G35KT 10SM OVC030 13/09 A2991 RMK
Loading
Personal Weather Stations






























Interactive Weather Map New forecast layout! Learn more

10-Day Weather Forecast

Advertisements
Track Severe Weather on mobile